This is the latest recevied weather packets stored in our database for station/object AC8UJ. If no packets are shown the sender has not sent any weather packets the latest 10 day(s).
| Time | Temp. | Humidity | Pressure | Rain* | Wind** | Luminosity | Snow |
|---|---|---|---|---|---|---|---|
| 1777390216 | 18.89° C | 87% | - | 0 mm | - | - | - |
| 1777387815 | 17.78° C | 90% | - | 0 mm | - | - | - |
| 1777380615 | 16.11° C | 95% | - | 0 mm | - | - | - |
| 1777378816 | 15.56° C | 95% | - | 0 mm | - | - | - |
| 1777375815 | 15.56° C | 95% | - | 0 mm | - | - | - |
| 1777374618 | 15.56° C | 95% | - | 0 mm | - | - | - |
| 1777371616 | 15° C | 95% | - | 0 mm | - | - | - |
| 1777363216 | 15° C | 95% | - | 0 mm | - | - | - |
| 1777362039 | 15° C | 95% | - | 0.51 mm | - | - | - |
| 1777360817 | 15° C | 95% | - | 1.52 mm | - | - | - |
| 1777360218 | 15° C | 95% | - | 2.79 mm | - | - | - |
| 1777357216 | 15.56° C | 94% | - | 15.75 mm | - | - | - |
| 1777352417 | 15.56° C | 94% | - | 8.64 mm | - | - | - |
| 1777350615 | 15.56° C | 93% | - | 10.16 mm | - | - | - |
| 1777347616 | 16.11° C | 93% | - | 4.32 mm | - | - | - |
| 1777345216 | 16.11° C | 92% | - | 3.56 mm | - | - | - |
| 1777344037 | 16.11° C | 93% | - | 4.06 mm | - | - | - |
| 1777342836 | 16.11° C | 93% | - | 5.08 mm | - | - | - |
| 1777336817 | 16.67° C | 93% | - | 5.84 mm | - | - | - |
| 1777333216 | 16.67° C | 91% | - | 2.79 mm | - | - | - |
| 1777332616 | 16.67° C | 90% | - | 2.03 mm | - | - | - |
| 1777330816 | 17.78° C | 87% | - | 1.02 mm | - | - | - |
| 1777324238 | 21.11° C | 75% | - | 0.51 mm | - | - | - |
| 1777323617 | 21.67° C | 72% | - | 0.25 mm | - | - | - |
| 1777322415 | 22.78° C | 67% | - | 0 mm | - | - | - |
* Rain latest hour (hover to see other rain measurements)
** Current wind speed in m/s (hover to see current wind gust speed)